KRFD/RFD METAR and TAF weather

Enter ICAO airport designator
Station Type Date Time Source
KRFD METAR 2021/09/16 09:54 UTC NOAA

KRFD 160954Z 00000KT 10SM MIFG CLR 11/09 A3010 RMK AO2 SLP190 T01060089 $


Station Type Date Time Source
KRFD Decoded METAR 2021/09/16 09:54 UTC NOAA

GREATER ROCKFORD AIRPORT, IL, United States (KRFD) 42-12N 89-06W 221M
Sep 16, 2021 - 05:54 AM EDT / 2021.09.16 0954 UTC
Wind: Calm:0
Visibility: 10 mile(s):0
Sky conditions: clear
Weather: shallow fog
Temperature: 51.1 F (10.6 C)
Dew Point: 48.0 F (8.9 C)
Relative Humidity: 89%
Pressure (altimeter): 30.1 in. Hg (1019 hPa)
ob: KRFD 160954Z 00000KT 10SM MIFG CLR 11/09 A3010 RMK AO2 SLP190 T01060089
cycle: 10

Station Type Date Time Source
KRFD TAF 2021/09/16 06:33 UTC NOAA

TAF KRFD 160529Z 1606/1706 VRB04KT P6SM SKC
FM161400 17010G15KT P6SM SKC
FM170000 17007KT P6SM SKC

Example: see airport list